createdAt,value
2017-12-25T00:00:34.548Z,0
2017-12-25T00:01:15.057Z,0
2017-12-25T00:01:55.558Z,0
2017-12-25T00:02:36.078Z,0
2017-12-25T00:03:16.593Z,0
2017-12-25T00:03:57.148Z,0
2017-12-25T00:04:37.681Z,0
2017-12-25T00:05:18.228Z,0
2017-12-25T00:05:58.744Z,0
2017-12-25T00:06:39.257Z,0
2017-12-25T00:07:19.784Z,0
2017-12-25T00:08:00.312Z,0
2017-12-25T00:08:40.843Z,0
2017-12-25T00:09:21.374Z,0
2017-12-25T00:10:01.914Z,0
2017-12-25T00:10:42.436Z,0
2017-12-25T00:11:22.969Z,0
2017-12-25T00:12:03.493Z,0
2017-12-25T00:12:44.040Z,0
2017-12-25T00:13:24.558Z,0
2017-12-25T00:14:05.085Z,0
2017-12-25T00:14:45.620Z,0
2017-12-25T00:15:26.150Z,0
2017-12-25T00:16:06.682Z,0
2017-12-25T00:16:47.209Z,0
2017-12-25T00:17:27.821Z,0
2017-12-25T00:18:08.363Z,0
2017-12-25T00:18:48.900Z,0
2017-12-25T00:19:29.419Z,0
2017-12-25T00:20:09.951Z,0
2017-12-25T00:20:50.459Z,0
2017-12-25T00:21:30.983Z,0
2017-12-25T00:22:11.504Z,0
2017-12-25T00:22:52.054Z,0
2017-12-25T00:23:32.569Z,0
2017-12-25T00:24:13.115Z,0
2017-12-25T00:24:53.644Z,0
2017-12-25T00:25:34.165Z,0
2017-12-25T00:26:14.709Z,0
2017-12-25T00:26:55.220Z,0
2017-12-25T00:27:35.790Z,0
2017-12-25T00:28:16.270Z,0
2017-12-25T00:28:56.791Z,0
2017-12-25T00:29:37.315Z,0
2017-12-25T00:30:17.844Z,0
2017-12-25T00:30:58.368Z,0
2017-12-25T00:31:38.891Z,0
2017-12-25T00:32:19.623Z,0
2017-12-25T00:33:00.168Z,0
2017-12-25T00:33:40.767Z,0
2017-12-25T00:34:21.291Z,0
2017-12-25T00:35:01.799Z,0
2017-12-25T00:35:42.328Z,0
2017-12-25T00:36:22.838Z,0
2017-12-25T00:37:03.381Z,0
2017-12-25T00:37:43.905Z,0
2017-12-25T00:38:24.453Z,0
2017-12-25T00:39:04.948Z,0
2017-12-25T00:39:45.472Z,0
2017-12-25T00:40:25.991Z,0
2017-12-25T00:41:06.542Z,0
2017-12-25T00:41:47.062Z,0
2017-12-25T00:42:27.601Z,0
2017-12-25T00:43:08.147Z,0
2017-12-25T00:43:48.676Z,0
2017-12-25T00:44:29.225Z,0
2017-12-25T00:45:09.739Z,0
2017-12-25T00:45:50.250Z,0
2017-12-25T00:46:30.777Z,0
2017-12-25T00:47:11.316Z,0
2017-12-25T00:47:51.831Z,0
2017-12-25T00:48:32.352Z,0
2017-12-25T00:49:12.868Z,0
2017-12-25T00:49:53.394Z,0
2017-12-25T00:50:33.901Z,0
2017-12-25T00:51:14.436Z,0
2017-12-25T00:51:54.939Z,0
2017-12-25T00:52:35.456Z,0
2017-12-25T00:53:15.989Z,0
2017-12-25T00:53:56.553Z,0
2017-12-25T00:54:37.137Z,0
2017-12-25T00:55:17.656Z,0
2017-12-25T00:55:58.191Z,0
2017-12-25T00:56:38.710Z,0
2017-12-25T00:57:19.212Z,0
2017-12-25T00:57:59.718Z,0
2017-12-25T00:58:40.226Z,0
2017-12-25T00:59:20.736Z,0
2017-12-25T01:00:01.271Z,0
2017-12-25T01:00:41.779Z,0
2017-12-25T01:01:22.313Z,0
2017-12-25T01:02:02.855Z,0
2017-12-25T01:02:43.381Z,0
2017-12-25T01:03:23.901Z,0
2017-12-25T01:04:04.415Z,0
2017-12-25T01:04:44.926Z,0
2017-12-25T01:05:25.471Z,0
2017-12-25T01:06:05.993Z,0
2017-12-25T01:06:46.514Z,0
2017-12-25T01:07:27.044Z,0
2017-12-25T01:08:07.579Z,0
2017-12-25T01:08:48.105Z,0
2017-12-25T01:09:28.648Z,0
2017-12-25T01:10:09.229Z,0
2017-12-25T01:10:49.751Z,0
2017-12-25T01:11:30.282Z,0
2017-12-25T01:12:10.794Z,0
2017-12-25T01:12:51.340Z,0
2017-12-25T01:13:31.884Z,0
2017-12-25T01:14:12.403Z,0
2017-12-25T01:14:52.932Z,0
2017-12-25T01:15:33.458Z,0
2017-12-25T01:16:13.968Z,0
2017-12-25T01:16:54.468Z,0
2017-12-25T01:17:34.999Z,0
2017-12-25T01:18:15.541Z,0
2017-12-25T01:18:56.092Z,0
2017-12-25T01:19:36.604Z,0
2017-12-25T01:20:17.130Z,0
2017-12-25T01:20:57.661Z,0
2017-12-25T01:21:38.188Z,0
2017-12-25T01:22:18.710Z,0
2017-12-25T01:22:59.230Z,0
2017-12-25T01:23:39.758Z,0
2017-12-25T01:24:20.292Z,0
2017-12-25T01:25:00.833Z,0
2017-12-25T01:25:41.362Z,0
2017-12-25T01:26:21.900Z,0
2017-12-25T01:27:02.439Z,0
2017-12-25T01:27:42.955Z,0
2017-12-25T01:28:23.496Z,0
2017-12-25T01:29:04.017Z,0
2017-12-25T01:29:44.540Z,0
2017-12-25T01:30:25.080Z,0
2017-12-25T01:31:05.604Z,0
2017-12-25T01:31:46.131Z,0
2017-12-25T01:32:26.658Z,0
2017-12-25T01:33:07.214Z,0
2017-12-25T01:33:47.751Z,0
2017-12-25T01:34:28.256Z,0
2017-12-25T01:35:08.787Z,0
2017-12-25T01:35:49.319Z,0
2017-12-25T01:36:29.855Z,0
2017-12-25T01:37:10.344Z,0
2017-12-25T01:37:50.867Z,0
2017-12-25T01:38:31.423Z,0
2017-12-25T01:39:11.944Z,0
2017-12-25T01:39:52.473Z,0
2017-12-25T01:40:33.001Z,0
2017-12-25T01:41:13.540Z,0
2017-12-25T01:41:54.056Z,0
2017-12-25T01:42:34.579Z,0
2017-12-25T01:43:15.112Z,0
2017-12-25T01:43:55.642Z,0
2017-12-25T01:44:36.167Z,0
2017-12-25T01:45:16.705Z,0
2017-12-25T01:45:57.237Z,0
2017-12-25T01:46:37.763Z,0
2017-12-25T01:47:18.304Z,0
2017-12-25T01:47:58.825Z,0
2017-12-25T01:48:39.373Z,0
2017-12-25T01:49:19.900Z,0
2017-12-25T01:50:00.415Z,0
2017-12-25T01:50:40.955Z,0
2017-12-25T01:51:21.495Z,0
2017-12-25T01:52:02.026Z,0
2017-12-25T01:52:42.557Z,0
2017-12-25T01:53:23.067Z,0
2017-12-25T01:54:03.612Z,0
2017-12-25T01:54:44.138Z,0
2017-12-25T01:55:24.694Z,0
2017-12-25T01:56:05.227Z,0
2017-12-25T01:56:45.751Z,0
2017-12-25T01:57:26.280Z,0
2017-12-25T01:58:06.827Z,0
2017-12-25T01:58:47.353Z,0
2017-12-25T01:59:27.882Z,0
2017-12-25T02:00:08.400Z,0
2017-12-25T02:00:48.925Z,0
2017-12-25T02:01:29.467Z,0
2017-12-25T02:02:09.996Z,0
2017-12-25T02:02:50.511Z,0
2017-12-25T02:03:31.035Z,0
2017-12-25T02:04:11.565Z,0
2017-12-25T02:04:52.106Z,0
2017-12-25T02:05:32.625Z,0
2017-12-25T02:06:13.171Z,0
2017-12-25T02:06:53.678Z,0
2017-12-25T02:07:34.241Z,0
2017-12-25T02:08:14.766Z,0
2017-12-25T02:08:55.302Z,0
2017-12-25T02:09:35.834Z,0
2017-12-25T02:10:16.361Z,0
2017-12-25T02:10:56.955Z,0
2017-12-25T02:11:37.486Z,0
2017-12-25T02:12:18.016Z,0
2017-12-25T02:12:58.530Z,0
2017-12-25T02:13:39.073Z,0
2017-12-25T02:14:19.598Z,0
2017-12-25T02:15:00.138Z,0
2017-12-25T02:15:40.655Z,0
2017-12-25T02:16:21.182Z,0
2017-12-25T02:17:01.726Z,0
2017-12-25T02:17:42.240Z,0
2017-12-25T02:18:22.758Z,0
2017-12-25T02:19:03.274Z,0
2017-12-25T02:19:43.794Z,0
2017-12-25T02:20:24.334Z,0
2017-12-25T02:21:04.836Z,0
2017-12-25T02:21:45.376Z,0
2017-12-25T02:22:25.912Z,0
2017-12-25T02:23:06.446Z,0
2017-12-25T02:23:46.946Z,0
2017-12-25T02:24:27.476Z,0
2017-12-25T02:25:08.011Z,0
2017-12-25T02:25:48.543Z,0
2017-12-25T02:26:29.070Z,0
2017-12-25T02:27:09.589Z,0
2017-12-25T02:27:50.108Z,0
2017-12-25T02:28:30.645Z,0
2017-12-25T02:29:11.171Z,0
2017-12-25T02:29:51.700Z,0
2017-12-25T02:30:32.207Z,0
2017-12-25T02:31:12.735Z,0
2017-12-25T02:31:53.251Z,0
2017-12-25T02:32:33.782Z,0
2017-12-25T02:33:14.316Z,0
2017-12-25T02:33:54.850Z,0
2017-12-25T02:34:35.413Z,0
2017-12-25T02:35:15.961Z,0
2017-12-25T02:35:56.500Z,0
2017-12-25T02:36:37.021Z,0
2017-12-25T02:37:17.537Z,0
2017-12-25T02:38:01.038Z,0
2017-12-25T02:38:41.567Z,0
2017-12-25T02:39:22.093Z,0
2017-12-25T02:40:02.618Z,0
2017-12-25T02:40:43.147Z,0
2017-12-25T02:41:23.674Z,0
2017-12-25T02:42:04.202Z,0
2017-12-25T02:42:44.806Z,0
2017-12-25T02:43:25.342Z,0
2017-12-25T02:44:05.877Z,0
2017-12-25T02:44:46.397Z,0
2017-12-25T02:45:26.915Z,0
2017-12-25T02:46:07.429Z,0
2017-12-25T02:46:47.965Z,0
2017-12-25T02:47:28.490Z,0
2017-12-25T02:48:09.015Z,0
2017-12-25T02:48:49.552Z,0
2017-12-25T02:49:30.093Z,0
2017-12-25T02:50:10.631Z,0
2017-12-25T02:50:51.163Z,0
2017-12-25T02:51:31.691Z,0
2017-12-25T02:52:12.216Z,0
2017-12-25T02:52:52.750Z,0
2017-12-25T02:53:33.276Z,0
2017-12-25T02:54:13.795Z,0
2017-12-25T02:54:54.336Z,0
2017-12-25T02:55:34.858Z,0
2017-12-25T02:56:15.401Z,0
2017-12-25T02:56:55.935Z,0
2017-12-25T02:57:36.480Z,0
2017-12-25T02:58:17.000Z,0
2017-12-25T02:58:57.531Z,0
2017-12-25T02:59:38.064Z,0
2017-12-25T03:00:18.603Z,0
2017-12-25T03:00:59.131Z,0
2017-12-25T03:01:39.652Z,0
2017-12-25T03:02:20.194Z,0
2017-12-25T03:03:00.730Z,0
2017-12-25T03:03:41.262Z,0
2017-12-25T03:04:21.797Z,0
2017-12-25T03:05:02.339Z,0
2017-12-25T03:05:42.891Z,0
2017-12-25T03:06:23.423Z,0
2017-12-25T03:07:03.967Z,0
2017-12-25T03:07:44.483Z,0
2017-12-25T03:08:25.022Z,0
2017-12-25T03:09:05.552Z,0
2017-12-25T03:09:46.088Z,0
2017-12-25T03:10:26.612Z,0
2017-12-25T03:11:07.140Z,0
2017-12-25T03:11:47.674Z,0
2017-12-25T03:12:28.248Z,0
2017-12-25T03:13:08.776Z,0
2017-12-25T03:13:49.310Z,0
2017-12-25T03:14:29.836Z,0
2017-12-25T03:15:10.378Z,0
2017-12-25T03:15:50.907Z,0
2017-12-25T03:16:31.393Z,0
2017-12-25T03:17:11.921Z,0
2017-12-25T03:17:52.454Z,0
2017-12-25T03:18:32.968Z,0
2017-12-25T03:19:13.511Z,0
2017-12-25T03:19:54.041Z,0
2017-12-25T03:20:34.562Z,0
2017-12-25T03:21:15.091Z,0
2017-12-25T03:21:55.623Z,0
2017-12-25T03:22:36.152Z,0
2017-12-25T03:23:16.695Z,0
2017-12-25T03:23:57.197Z,0
2017-12-25T03:24:37.733Z,0
2017-12-25T03:25:18.258Z,0
2017-12-25T03:25:58.791Z,0
2017-12-25T03:26:39.309Z,0
2017-12-25T03:27:19.832Z,0
2017-12-25T03:28:00.360Z,0
2017-12-25T03:28:40.888Z,0
2017-12-25T03:29:21.397Z,0
2017-12-25T03:30:01.916Z,0
2017-12-25T03:30:42.432Z,0
2017-12-25T03:31:22.949Z,0
2017-12-25T03:32:03.456Z,0
2017-12-25T03:32:43.985Z,0
2017-12-25T03:33:24.504Z,0
2017-12-25T03:34:05.040Z,0
2017-12-25T03:34:45.567Z,0
2017-12-25T03:35:26.175Z,0
2017-12-25T03:36:06.710Z,0
2017-12-25T03:36:47.240Z,0
2017-12-25T03:37:27.775Z,0
2017-12-25T03:38:08.308Z,0
2017-12-25T03:38:48.840Z,0
2017-12-25T03:39:29.351Z,0
2017-12-25T03:40:09.878Z,0
2017-12-25T03:40:50.412Z,0
2017-12-25T03:41:30.898Z,0
2017-12-25T03:42:11.423Z,0
2017-12-25T03:42:51.951Z,0
2017-12-25T03:43:32.488Z,0
2017-12-25T03:44:13.017Z,0
2017-12-25T03:44:53.534Z,0
2017-12-25T03:45:34.072Z,0
2017-12-25T03:46:14.610Z,0
2017-12-25T03:46:55.140Z,0
2017-12-25T03:47:35.665Z,0
2017-12-25T03:48:16.209Z,0
2017-12-25T03:48:56.764Z,0
2017-12-25T03:50:55.864Z,0
2017-12-25T03:51:36.392Z,0
2017-12-25T03:52:16.909Z,0
2017-12-25T03:52:57.429Z,0
2017-12-25T03:53:37.943Z,0
2017-12-25T03:54:18.461Z,0
2017-12-25T03:54:59.017Z,0
2017-12-25T03:55:39.512Z,0
2017-12-25T03:56:20.044Z,0
2017-12-25T03:57:00.565Z,0
2017-12-25T03:57:41.106Z,0
2017-12-25T03:58:21.626Z,0
2017-12-25T03:59:02.153Z,0
2017-12-25T03:59:42.670Z,0
2017-12-25T04:00:23.160Z,0
2017-12-25T04:01:03.672Z,0
2017-12-25T04:01:44.198Z,0
2017-12-25T04:02:24.703Z,0
2017-12-25T04:03:05.226Z,0
2017-12-25T04:03:45.759Z,0
2017-12-25T04:04:26.289Z,0
2017-12-25T04:05:06.821Z,0
2017-12-25T04:05:47.354Z,0
2017-12-25T04:06:27.882Z,0
2017-12-25T04:07:08.392Z,0
2017-12-25T04:07:48.910Z,0
2017-12-25T04:08:29.439Z,0
2017-12-25T04:09:09.966Z,0
2017-12-25T04:09:50.499Z,0
2017-12-25T04:10:31.035Z,0
2017-12-25T04:11:11.558Z,0
2017-12-25T04:11:52.085Z,0
2017-12-25T04:12:32.618Z,0
2017-12-25T04:13:13.146Z,0
2017-12-25T04:13:53.687Z,0
2017-12-25T04:14:34.209Z,0
2017-12-25T04:15:14.751Z,0
2017-12-25T04:15:55.288Z,0
2017-12-25T04:16:35.822Z,0
2017-12-25T04:17:16.359Z,0
2017-12-25T04:17:56.888Z,0
2017-12-25T04:18:37.412Z,0
2017-12-25T04:19:17.941Z,0
2017-12-25T04:19:58.469Z,0
2017-12-25T04:20:38.985Z,0
2017-12-25T04:21:19.505Z,0
2017-12-25T04:22:00.025Z,0
2017-12-25T04:22:40.550Z,0
2017-12-25T04:23:21.077Z,0
2017-12-25T04:24:01.567Z,0
2017-12-25T04:24:42.088Z,0
2017-12-25T04:25:22.595Z,0
2017-12-25T04:26:03.126Z,0
2017-12-25T04:26:43.636Z,0
2017-12-25T04:27:24.156Z,0
2017-12-25T04:28:04.691Z,0
2017-12-25T04:28:45.216Z,0
2017-12-25T04:29:25.744Z,0
2017-12-25T04:30:06.258Z,0
2017-12-25T04:30:46.787Z,0
2017-12-25T04:31:27.306Z,0
2017-12-25T04:32:07.806Z,0
2017-12-25T04:32:48.354Z,0
2017-12-25T04:33:28.874Z,0
2017-12-25T04:34:09.406Z,0
2017-12-25T04:34:49.946Z,0
2017-12-25T04:35:30.474Z,0
2017-12-25T04:36:11.006Z,0
2017-12-25T04:36:51.523Z,0
2017-12-25T04:37:32.044Z,0
2017-12-25T04:38:12.562Z,0
2017-12-25T04:38:53.110Z,0
2017-12-25T04:39:33.617Z,0
2017-12-25T04:40:14.142Z,0
2017-12-25T04:40:54.669Z,0
2017-12-25T04:41:35.211Z,0
2017-12-25T04:42:15.730Z,0
2017-12-25T04:42:56.248Z,0
2017-12-25T04:43:36.746Z,0
2017-12-25T04:44:17.276Z,0
2017-12-25T04:44:57.778Z,0
2017-12-25T04:45:38.308Z,0
2017-12-25T04:46:18.834Z,0
2017-12-25T04:46:59.335Z,0
2017-12-25T04:47:39.863Z,0
2017-12-25T04:48:20.373Z,0
2017-12-25T04:49:00.880Z,0
2017-12-25T04:49:41.404Z,0
2017-12-25T04:50:21.915Z,0
2017-12-25T04:51:02.421Z,0
2017-12-25T04:51:42.945Z,0
2017-12-25T04:52:23.452Z,0
2017-12-25T04:53:03.974Z,0
2017-12-25T04:53:44.484Z,0
2017-12-25T04:54:25.004Z,0
2017-12-25T04:55:05.515Z,0
2017-12-25T04:55:46.029Z,0
2017-12-25T04:56:26.549Z,0
2017-12-25T04:57:07.065Z,0
2017-12-25T04:57:47.593Z,0
2017-12-25T04:58:28.131Z,0
2017-12-25T04:59:08.637Z,0
2017-12-25T04:59:49.162Z,0
2017-12-25T05:00:29.705Z,0
2017-12-25T05:01:10.233Z,0
2017-12-25T05:01:50.763Z,0
2017-12-25T05:02:31.341Z,0
2017-12-25T05:03:11.856Z,0
2017-12-25T05:03:52.371Z,0
2017-12-25T05:04:32.872Z,0
2017-12-25T05:05:13.382Z,0
2017-12-25T05:05:53.910Z,0
2017-12-25T05:06:34.423Z,0
2017-12-25T05:07:14.926Z,0
2017-12-25T05:07:55.459Z,0
2017-12-25T05:08:35.987Z,0
2017-12-25T05:09:16.508Z,0
2017-12-25T05:09:57.042Z,0
2017-12-25T05:10:37.564Z,0
2017-12-25T05:11:18.112Z,0
2017-12-25T05:11:58.640Z,0
2017-12-25T05:12:39.165Z,0
2017-12-25T05:13:19.695Z,0
2017-12-25T05:14:00.238Z,0
2017-12-25T05:14:40.754Z,0
2017-12-25T05:15:21.259Z,0
2017-12-25T05:16:01.788Z,0
2017-12-25T05:16:42.314Z,0
2017-12-25T05:17:22.847Z,0
2017-12-25T05:18:03.372Z,0
2017-12-25T05:18:43.876Z,0
2017-12-25T05:19:24.397Z,0
2017-12-25T05:20:04.916Z,0
2017-12-25T05:20:45.412Z,0
2017-12-25T05:21:25.918Z,0
2017-12-25T05:22:06.440Z,0
2017-12-25T05:22:46.956Z,0
2017-12-25T05:23:27.531Z,0
2017-12-25T05:24:08.057Z,0
2017-12-25T05:24:48.590Z,0
2017-12-25T05:25:29.129Z,0
2017-12-25T05:26:09.619Z,0
2017-12-25T05:26:50.133Z,0
2017-12-25T05:27:30.657Z,0
2017-12-25T05:28:11.176Z,0
2017-12-25T05:28:51.697Z,0
2017-12-25T05:29:32.224Z,0
2017-12-25T05:30:12.764Z,0
2017-12-25T05:30:53.299Z,0
2017-12-25T05:31:33.829Z,0
2017-12-25T05:32:14.346Z,0
2017-12-25T05:32:54.880Z,0
2017-12-25T05:33:35.407Z,0
2017-12-25T05:34:15.949Z,0
2017-12-25T05:34:56.470Z,0
2017-12-25T05:35:37.012Z,0
2017-12-25T05:36:17.526Z,0
2017-12-25T05:36:58.049Z,0
2017-12-25T05:37:38.567Z,0
2017-12-25T05:38:19.109Z,0
2017-12-25T05:38:59.646Z,0
2017-12-25T05:39:40.150Z,0
2017-12-25T05:40:20.673Z,0
2017-12-25T05:41:01.200Z,0
2017-12-25T05:41:41.706Z,0
2017-12-25T05:42:22.233Z,0
2017-12-25T05:43:02.764Z,0
2017-12-25T05:43:43.280Z,0
2017-12-25T05:44:23.789Z,0
2017-12-25T05:45:04.317Z,0
2017-12-25T05:45:44.845Z,0
2017-12-25T05:46:25.372Z,0
2017-12-25T05:47:05.892Z,0
2017-12-25T05:47:46.402Z,0
2017-12-25T05:48:26.921Z,0
2017-12-25T05:49:07.442Z,0
2017-12-25T05:49:47.991Z,0
2017-12-25T05:50:28.516Z,0
2017-12-25T05:51:09.037Z,0
2017-12-25T05:51:49.561Z,0
2017-12-25T05:52:30.067Z,0
2017-12-25T05:53:10.588Z,0
2017-12-25T05:53:51.097Z,0
2017-12-25T05:54:31.629Z,0
2017-12-25T05:55:12.155Z,0
2017-12-25T05:55:52.684Z,0
2017-12-25T05:56:33.211Z,0
2017-12-25T05:57:13.744Z,0
2017-12-25T05:57:54.268Z,0
2017-12-25T05:58:34.810Z,0
2017-12-25T05:59:15.306Z,0
2017-12-25T05:59:55.839Z,0
2017-12-25T06:00:36.358Z,0
2017-12-25T06:01:16.866Z,0
2017-12-25T06:01:57.396Z,0
2017-12-25T06:02:37.893Z,0
2017-12-25T06:03:18.442Z,0
2017-12-25T06:03:58.966Z,0
2017-12-25T06:04:39.498Z,0
2017-12-25T06:05:20.061Z,0
2017-12-25T06:06:00.556Z,0
2017-12-25T06:06:41.110Z,0
2017-12-25T06:07:21.640Z,0
2017-12-25T06:08:02.149Z,0
2017-12-25T06:08:42.664Z,0
2017-12-25T06:09:23.188Z,0
2017-12-25T06:10:03.717Z,0
2017-12-25T06:10:44.246Z,0
2017-12-25T06:11:24.785Z,0
2017-12-25T06:12:05.313Z,0
2017-12-25T06:12:45.852Z,0
2017-12-25T06:13:26.393Z,0
2017-12-25T06:14:06.927Z,0
2017-12-25T06:14:47.467Z,0
2017-12-25T06:15:28.002Z,0
2017-12-25T06:16:08.522Z,0
2017-12-25T06:16:49.048Z,0
2017-12-25T06:17:29.585Z,0
2017-12-25T06:18:10.111Z,0
2017-12-25T06:18:50.629Z,0
2017-12-25T06:19:31.213Z,0
2017-12-25T06:20:11.749Z,0
2017-12-25T06:20:52.271Z,0
2017-12-25T06:21:32.799Z,0
2017-12-25T06:22:13.315Z,0
2017-12-25T06:22:53.824Z,0
2017-12-25T06:23:34.335Z,0
2017-12-25T06:24:14.860Z,0
2017-12-25T06:24:55.395Z,0
2017-12-25T06:25:35.906Z,0
2017-12-25T06:26:16.416Z,0
2017-12-25T06:26:56.932Z,0
2017-12-25T06:27:37.452Z,0
2017-12-25T06:28:17.977Z,0
2017-12-25T06:28:58.505Z,0
2017-12-25T06:29:39.015Z,0
2017-12-25T06:30:19.520Z,0
2017-12-25T06:31:00.064Z,0
2017-12-25T06:31:40.606Z,0
2017-12-25T06:32:21.126Z,0
2017-12-25T06:33:01.637Z,0
2017-12-25T06:33:42.157Z,0
2017-12-25T06:34:22.667Z,0
2017-12-25T06:35:03.194Z,0
2017-12-25T06:35:43.723Z,0
2017-12-25T06:36:24.260Z,0
2017-12-25T06:37:04.780Z,0
2017-12-25T06:37:45.309Z,0
2017-12-25T06:38:25.843Z,0
2017-12-25T06:39:06.371Z,0
2017-12-25T06:39:46.924Z,0
2017-12-25T06:40:27.435Z,0
2017-12-25T06:41:07.956Z,0
2017-12-25T06:41:48.477Z,0
2017-12-25T06:42:28.988Z,0
2017-12-25T06:43:09.525Z,0
2017-12-25T06:43:50.062Z,0
2017-12-25T06:44:30.573Z,0
2017-12-25T06:45:11.133Z,0
2017-12-25T06:45:51.664Z,0
2017-12-25T06:46:32.193Z,0
2017-12-25T06:47:12.762Z,0
2017-12-25T06:47:53.294Z,0
2017-12-25T06:48:33.824Z,0
2017-12-25T06:49:14.377Z,0
2017-12-25T06:49:54.891Z,0
2017-12-25T06:50:35.416Z,0
2017-12-25T06:51:15.980Z,0
2017-12-25T06:51:56.483Z,0
2017-12-25T06:52:37.036Z,0
2017-12-25T06:53:17.573Z,0
2017-12-25T06:53:58.075Z,0
2017-12-25T06:54:38.610Z,0
2017-12-25T06:55:19.165Z,0
2017-12-25T06:55:59.689Z,0
2017-12-25T06:56:40.217Z,0
2017-12-25T06:57:20.730Z,0
2017-12-25T06:58:01.252Z,0
2017-12-25T06:58:41.775Z,0
2017-12-25T06:59:22.318Z,0
2017-12-25T07:00:02.881Z,4
2017-12-25T07:00:43.395Z,4
2017-12-25T07:01:23.925Z,4
2017-12-25T07:02:04.464Z,4
2017-12-25T07:02:44.973Z,4
2017-12-25T07:03:25.531Z,0
2017-12-25T07:04:06.057Z,0
2017-12-25T07:04:46.581Z,0
2017-12-25T07:05:27.123Z,0
2017-12-25T07:06:07.670Z,4
2017-12-25T07:06:48.199Z,4
2017-12-25T07:07:28.728Z,0
2017-12-25T07:08:09.251Z,4
2017-12-25T07:08:49.784Z,4
2017-12-25T07:09:30.427Z,4
2017-12-25T07:10:10.957Z,4
2017-12-25T07:10:51.509Z,4
2017-12-25T07:11:32.023Z,4
2017-12-25T07:12:12.551Z,8
2017-12-25T07:12:53.062Z,4
2017-12-25T07:13:33.621Z,8
2017-12-25T07:14:14.153Z,8
2017-12-25T07:14:54.663Z,8
2017-12-25T07:15:35.200Z,12
2017-12-25T07:16:15.745Z,12
2017-12-25T07:16:56.274Z,12
2017-12-25T07:17:36.805Z,12
2017-12-25T07:18:17.336Z,16
2017-12-25T07:18:57.850Z,16
2017-12-25T07:19:38.401Z,16
2017-12-25T07:20:18.946Z,20
2017-12-25T07:20:59.482Z,20
2017-12-25T07:21:40.017Z,20
2017-12-25T07:22:20.611Z,20
2017-12-25T07:23:01.147Z,24
2017-12-25T07:23:41.683Z,24
2017-12-25T07:24:22.238Z,28
2017-12-25T07:25:02.775Z,28
2017-12-25T07:25:43.293Z,36
2017-12-25T07:26:23.822Z,36
2017-12-25T07:27:04.360Z,36
2017-12-25T07:27:44.886Z,40
2017-12-25T07:28:25.424Z,40
2017-12-25T07:29:05.953Z,40
2017-12-25T07:29:46.477Z,44
2017-12-25T07:30:27.007Z,52
2017-12-25T07:31:07.581Z,52
2017-12-25T07:31:48.108Z,52
2017-12-25T07:32:28.625Z,52
2017-12-25T07:33:09.156Z,56
2017-12-25T07:33:49.669Z,60
2017-12-25T07:34:30.270Z,64
2017-12-25T07:35:10.866Z,72
2017-12-25T07:35:51.477Z,84
2017-12-25T07:36:32.038Z,88
2017-12-25T07:37:12.516Z,92
2017-12-25T07:37:53.178Z,96
2017-12-25T07:38:33.758Z,96
2017-12-25T07:39:14.291Z,96
2017-12-25T07:39:54.815Z,96
2017-12-25T07:40:35.349Z,100
2017-12-25T07:41:15.869Z,108
2017-12-25T07:41:56.387Z,112
2017-12-25T07:42:36.946Z,120
2017-12-25T07:43:17.472Z,120
2017-12-25T07:43:57.993Z,120
2017-12-25T07:44:38.526Z,124
2017-12-25T07:45:19.054Z,124
2017-12-25T07:45:59.633Z,128
2017-12-25T07:46:40.157Z,128
2017-12-25T07:47:20.711Z,132
2017-12-25T07:48:01.211Z,136
2017-12-25T07:50:30.690Z,144
2017-12-25T07:51:11.242Z,152
2017-12-25T07:51:51.773Z,164
2017-12-25T07:52:32.293Z,164
2017-12-25T07:53:12.840Z,164
2017-12-25T07:53:53.361Z,168
2017-12-25T07:54:33.899Z,172
2017-12-25T07:55:14.424Z,172
2017-12-25T07:55:54.938Z,172
2017-12-25T07:56:35.469Z,176
2017-12-25T07:57:15.992Z,180
2017-12-25T07:57:56.516Z,180
2017-12-25T07:58:37.043Z,180
2017-12-25T07:59:17.582Z,176
2017-12-25T07:59:58.092Z,180
2017-12-25T08:00:38.612Z,192
2017-12-25T08:01:19.143Z,196
2017-12-25T08:01:59.681Z,204
2017-12-25T08:02:40.209Z,212
2017-12-25T08:03:20.713Z,220
2017-12-25T08:04:01.254Z,228
2017-12-25T08:04:41.764Z,220
2017-12-25T08:05:22.261Z,220
2017-12-25T08:06:02.786Z,224
2017-12-25T08:06:43.320Z,240
2017-12-25T08:07:23.926Z,252
2017-12-25T08:08:04.439Z,256
2017-12-25T08:08:44.972Z,256
2017-12-25T08:09:25.499Z,260
2017-12-25T08:10:06.027Z,264
2017-12-25T08:10:46.539Z,268
2017-12-25T08:11:27.051Z,276
2017-12-25T08:12:07.563Z,284
2017-12-25T08:12:48.087Z,304
